Time;durP1;ratioP1;P1;durP2;ratioP2;P2;SDS_P1;SDS_P2;PMS_P1;PMS_P2;Temp;Humidity;BMP_temperature;BMP_pressure;BME280_temperature;BME280_humidity;BME280_pressure;Samples;Min_cycle;Max_cycle;Signal;HPM_P1;HPM_P2
2021/10/11 00:00:03;;;;;;;16.65;12.30;;;;;;;;;;4954136;29;20106;-72
2021/10/11 00:02:30;;;;;;;18.83;12.43;;;;;;;;;;4954019;29;20059;-72
2021/10/11 00:04:57;;;;;;;15.43;11.57;;;;;;;;;;4954030;29;20047;-72
2021/10/11 00:07:23;;;;;;;17.45;11.50;;;;;;;;;;4953924;29;20498;-72
2021/10/11 00:09:50;;;;;;;18.58;12.48;;;;;;;;;;4954053;29;20085;-72
2021/10/11 00:12:21;;;;;;;15.85;11.57;;;;;;;;;;4953890;29;20055;-73
2021/10/11 00:14:48;;;;;;;21.70;13.38;;;;;;;;;;4953966;29;20114;-71
2021/10/11 00:17:15;;;;;;;19.17;12.55;;;;;;;;;;4953770;29;20051;-72
2021/10/11 00:19:43;;;;;;;16.80;11.35;;;;;;;;;;4953977;29;20059;-72
2021/10/11 00:22:10;;;;;;;15.77;12.23;;;;;;;;;;4953392;29;20395;-72
2021/10/11 00:24:36;;;;;;;15.15;11.48;;;;;;;;;;4953795;29;20055;-72
2021/10/11 00:27:03;;;;;;;17.95;11.70;;;;;;;;;;4953606;29;20047;-73
2021/10/11 00:29:29;;;;;;;16.70;11.65;;;;;;;;;;4953749;29;20566;-72
2021/10/11 00:31:56;;;;;;;14.50;11.60;;;;;;;;;;4953550;29;20469;-72
2021/10/11 00:34:23;;;;;;;16.80;11.43;;;;;;;;;;4953726;29;20050;-72
2021/10/11 00:36:49;;;;;;;15.20;11.82;;;;;;;;;;4936530;29;20466;-73
2021/10/11 00:39:16;;;;;;;18.25;11.52;;;;;;;;;;4953779;29;20082;-72
2021/10/11 00:41:42;;;;;;;15.45;10.75;;;;;;;;;;4953445;29;20500;-73
2021/10/11 00:44:09;;;;;;;19.85;12.27;;;;;;;;;;4953471;29;20055;-71
2021/10/11 00:46:35;;;;;;;16.63;11.43;;;;;;;;;;4953350;29;20074;-72
2021/10/11 00:49:02;;;;;;;17.45;12.38;;;;;;;;;;4953449;29;20490;-72
2021/10/11 00:51:29;;;;;;;17.98;11.98;;;;;;;;;;4953372;29;20047;-72
2021/10/11 00:53:55;;;;;;;18.45;12.10;;;;;;;;;;4968345;28;20137;-72
2021/10/11 00:56:22;;;;;;;15.85;11.70;;;;;;;;;;4955042;28;20116;-72
2021/10/11 00:58:48;;;;;;;17.80;12.15;;;;;;;;;;4957516;29;20051;-72
2021/10/11 01:01:15;;;;;;;17.70;11.90;;;;;;;;;;4956303;29;20059;-72
2021/10/11 01:03:42;;;;;;;15.80;11.90;;;;;;;;;;4957223;29;20090;-71
2021/10/11 01:06:09;;;;;;;16.23;12.57;;;;;;;;;;4957307;28;20407;-72
2021/10/11 01:08:35;;;;;;;18.35;11.60;;;;;;;;;;4957166;29;20103;-72
2021/10/11 01:11:02;;;;;;;18.20;12.60;;;;;;;;;;4957238;29;20102;-71
2021/10/11 01:13:29;;;;;;;19.45;11.80;;;;;;;;;;4957044;29;20055;-72
2021/10/11 01:15:55;;;;;;;18.13;12.30;;;;;;;;;;4957191;29;20106;-72
2021/10/11 01:18:22;;;;;;;17.48;11.63;;;;;;;;;;4957131;29;20122;-72
2021/10/11 01:20:49;;;;;;;16.02;11.57;;;;;;;;;;4957090;29;20074;-71
2021/10/11 01:23:15;;;;;;;17.10;12.80;;;;;;;;;;4956815;29;20059;-71
2021/10/11 01:25:42;;;;;;;17.20;11.90;;;;;;;;;;4956784;29;20054;-72
2021/10/11 01:28:09;;;;;;;17.70;11.75;;;;;;;;;;4956908;29;20447;-72
2021/10/11 01:30:35;;;;;;;16.48;12.68;;;;;;;;;;4956817;29;20062;-72
2021/10/11 01:33:02;;;;;;;20.77;12.82;;;;;;;;;;4956812;29;20051;-72
2021/10/11 01:35:29;;;;;;;16.63;12.48;;;;;;;;;;4956883;29;20451;-72
2021/10/11 01:37:55;;;;;;;15.60;11.15;;;;;;;;;;4957040;29;20047;-72
2021/10/11 01:40:23;;;;;;;16.88;12.00;;;;;;;;;;4956695;29;20063;-72
2021/10/11 01:42:51;;;;;;;22.20;12.57;;;;;;;;;;4956609;29;20403;-72
2021/10/11 01:45:17;;;;;;;17.63;12.32;;;;;;;;;;4956809;29;20058;-72
2021/10/11 01:47:44;;;;;;;19.65;12.18;;;;;;;;;;4939596;29;20051;-72
2021/10/11 01:50:11;;;;;;;15.98;12.18;;;;;;;;;;4939855;29;20195;-72
2021/10/11 01:52:40;;;;;;;18.65;11.82;;;;;;;;;;4956050;29;20110;-71
2021/10/11 01:55:07;;;;;;;17.30;11.90;;;;;;;;;;4956588;29;20055;-71
2021/10/11 01:57:34;;;;;;;18.75;12.27;;;;;;;;;;4956572;29;20047;-71
2021/10/11 02:00:00;;;;;;;16.63;12.20;;;;;;;;;;4957408;29;20058;-71
2021/10/11 02:02:27;;;;;;;17.23;11.60;;;;;;;;;;4956305;29;20106;-71
2021/10/11 02:04:54;;;;;;;16.70;11.18;;;;;;;;;;4956223;29;20055;-72
2021/10/11 02:07:21;;;;;;;15.35;11.07;;;;;;;;;;4956510;28;20086;-72
2021/10/11 02:09:48;;;;;;;18.02;12.25;;;;;;;;;;4956343;29;20055;-72
2021/10/11 02:12:15;;;;;;;19.58;11.98;;;;;;;;;;4956055;29;20059;-72
2021/10/11 02:14:42;;;;;;;16.63;11.68;;;;;;;;;;4956206;29;20105;-72
2021/10/11 02:17:09;;;;;;;17.08;13.15;;;;;;;;;;4956180;29;20103;-72
2021/10/11 02:19:36;;;;;;;17.90;12.60;;;;;;;;;;4956016;29;20051;-72
2021/10/11 02:22:02;;;;;;;19.17;13.07;;;;;;;;;;4955990;29;20051;-72
2021/10/11 02:24:31;;;;;;;22.15;14.27;;;;;;;;;;4955793;29;20055;-71
2021/10/11 02:26:58;;;;;;;19.70;13.85;;;;;;;;;;4955739;29;20059;-71
2021/10/11 02:29:26;;;;;;;20.15;14.48;;;;;;;;;;4955605;29;20047;-71
2021/10/11 02:31:52;;;;;;;22.90;14.65;;;;;;;;;;4955833;29;20078;-72
2021/10/11 02:34:19;;;;;;;17.77;13.48;;;;;;;;;;4955851;29;20099;-72
2021/10/11 02:36:46;;;;;;;21.40;14.02;;;;;;;;;;4955687;29;20466;-72
2021/10/11 02:39:13;;;;;;;17.52;13.80;;;;;;;;;;4955761;29;20051;-72
2021/10/11 02:41:40;;;;;;;18.90;13.45;;;;;;;;;;4938441;29;20055;-72
2021/10/11 02:44:06;;;;;;;17.08;12.35;;;;;;;;;;4955699;29;20051;-72
2021/10/11 02:46:33;;;;;;;20.77;13.35;;;;;;;;;;4955422;29;20098;-72
2021/10/11 02:49:01;;;;;;;17.25;12.45;;;;;;;;;;4955735;29;20098;-72
2021/10/11 02:51:27;;;;;;;18.63;12.80;;;;;;;;;;4955194;29;20114;-72
2021/10/11 02:53:54;;;;;;;16.05;12.05;;;;;;;;;;4955582;29;20051;-71
2021/10/11 02:56:20;;;;;;;16.77;12.40;;;;;;;;;;4955165;29;20059;-71
2021/10/11 02:58:47;;;;;;;17.45;12.38;;;;;;;;;;4955603;29;20425;-71
2021/10/11 03:01:14;;;;;;;17.50;12.15;;;;;;;;;;4955190;29;20051;-71
2021/10/11 03:03:41;;;;;;;17.65;12.27;;;;;;;;;;4955022;29;20062;-71
2021/10/11 03:06:07;;;;;;;19.65;12.20;;;;;;;;;;4955238;29;20055;-71
2021/10/11 03:08:34;;;;;;;17.45;12.52;;;;;;;;;;4955070;29;20047;-71
2021/10/11 03:11:02;;;;;;;16.92;12.52;;;;;;;;;;4955321;29;20051;-72
2021/10/11 03:13:29;;;;;;;18.02;13.23;;;;;;;;;;4954650;29;20106;-72
2021/10/11 03:15:55;;;;;;;18.88;12.45;;;;;;;;;;4955031;29;20569;-72
2021/10/11 03:18:22;;;;;;;18.45;14.43;;;;;;;;;;4954090;28;20059;-72
2021/10/11 03:20:50;;;;;;;18.30;12.88;;;;;;;;;;4955105;29;20051;-72
2021/10/11 03:23:17;;;;;;;21.00;13.90;;;;;;;;;;4954874;29;20418;-72
2021/10/11 03:25:44;;;;;;;16.52;11.93;;;;;;;;;;4954732;29;20051;-72
2021/10/11 03:28:11;;;;;;;17.25;12.75;;;;;;;;;;4969680;28;20054;-72
2021/10/11 03:30:38;;;;;;;18.23;13.02;;;;;;;;;;4954613;29;20054;-72
2021/10/11 03:33:04;;;;;;;18.65;12.70;;;;;;;;;;4954694;29;20055;-72
2021/10/11 03:35:31;;;;;;;17.90;13.27;;;;;;;;;;4954603;29;20047;-72
2021/10/11 03:37:58;;;;;;;16.58;12.48;;;;;;;;;;4954890;29;20111;-72
2021/10/11 03:40:25;;;;;;;17.58;12.55;;;;;;;;;;4954694;29;20055;-72
2021/10/11 03:42:52;;;;;;;23.50;12.48;;;;;;;;;;4954490;29;20555;-72
2021/10/11 03:45:19;;;;;;;18.05;12.25;;;;;;;;;;4954442;29;20086;-72
2021/10/11 03:47:45;;;;;;;23.50;13.70;;;;;;;;;;4954381;29;20055;-72
2021/10/11 03:50:12;;;;;;;18.73;13.60;;;;;;;;;;4954613;29;20057;-72
2021/10/11 03:52:43;;;;;;;17.92;13.45;;;;;;;;;;4954189;29;20063;-72
2021/10/11 03:55:10;;;;;;;19.80;14.65;;;;;;;;;;4954628;29;20051;-72
2021/10/11 03:57:36;;;;;;;22.08;13.70;;;;;;;;;;4954090;29;20573;-72
2021/10/11 04:00:04;;;;;;;17.42;12.75;;;;;;;;;;4954715;29;20044;-72
2021/10/11 04:02:30;;;;;;;18.70;13.85;;;;;;;;;;4953799;29;20055;-72
2021/10/11 04:04:57;;;;;;;20.60;13.40;;;;;;;;;;4954361;29;20059;-73
2021/10/11 04:07:24;;;;;;;21.75;13.23;;;;;;;;;;4953955;29;20546;-73
2021/10/11 04:09:51;;;;;;;20.80;13.63;;;;;;;;;;4954191;29;20078;-72
2021/10/11 04:12:21;;;;;;;21.80;14.85;;;;;;;;;;4953898;29;20051;-73
2021/10/11 04:14:48;;;;;;;18.35;13.10;;;;;;;;;;4954047;29;20050;-73
2021/10/11 04:17:15;;;;;;;20.88;12.95;;;;;;;;;;4953984;29;20462;-72
2021/10/11 04:19:43;;;;;;;18.77;13.85;;;;;;;;;;4953891;29;20506;-72
2021/10/11 04:22:10;;;;;;;16.83;12.43;;;;;;;;;;4936837;29;20478;-72
2021/10/11 04:24:38;;;;;;;19.17;13.00;;;;;;;;;;4953982;29;20055;-71
2021/10/11 04:27:04;;;;;;;18.83;13.45;;;;;;;;;;4954459;29;20498;-71
2021/10/11 04:29:31;;;;;;;18.23;12.15;;;;;;;;;;4955116;28;20055;-72
2021/10/11 04:31:57;;;;;;;19.02;14.15;;;;;;;;;;4933679;29;20562;-72
2021/10/11 04:34:24;;;;;;;18.40;13.05;;;;;;;;;;4934612;29;20047;-72
2021/10/11 04:36:51;;;;;;;19.50;13.32;;;;;;;;;;4934724;29;20051;-72
2021/10/11 04:39:17;;;;;;;19.45;13.15;;;;;;;;;;4934620;29;20542;-72
2021/10/11 04:41:44;;;;;;;21.05;13.50;;;;;;;;;;4934426;29;20114;-72
2021/10/11 04:44:10;;;;;;;17.63;13.65;;;;;;;;;;4934470;29;20052;-72
2021/10/11 04:46:37;;;;;;;18.77;13.70;;;;;;;;;;4950584;29;20059;-72
2021/10/11 04:49:04;;;;;;;22.13;13.63;;;;;;;;;;4953100;29;20554;-73
2021/10/11 04:51:30;;;;;;;21.42;13.98;;;;;;;;;;4953034;29;20055;-72
2021/10/11 04:53:57;;;;;;;19.50;13.75;;;;;;;;;;4953379;29;20078;-72
2021/10/11 04:56:24;;;;;;;22.60;15.13;;;;;;;;;;4954834;28;20110;-72
2021/10/11 04:58:50;;;;;;;25.40;14.45;;;;;;;;;;4953732;29;20051;-72
2021/10/11 05:01:17;;;;;;;23.67;14.95;;;;;;;;;;4953260;29;20534;-72
2021/10/11 05:03:44;;;;;;;23.67;15.82;;;;;;;;;;4953393;29;20112;-72
2021/10/11 05:06:10;;;;;;;22.08;14.95;;;;;;;;;;4953386;29;20466;-72
2021/10/11 05:08:37;;;;;;;20.05;14.40;;;;;;;;;;4953473;29;20098;-73
2021/10/11 05:11:04;;;;;;;20.08;14.35;;;;;;;;;;4953574;29;20047;-73
2021/10/11 05:13:30;;;;;;;25.27;14.88;;;;;;;;;;4953240;29;20055;-74
2021/10/11 05:15:58;;;;;;;24.73;15.55;;;;;;;;;;4953452;29;20102;-74
2021/10/11 05:18:25;;;;;;;25.75;17.65;;;;;;;;;;4953386;29;20464;-70
2021/10/11 05:20:52;;;;;;;23.00;15.85;;;;;;;;;;4953551;29;20137;-71
2021/10/11 05:23:19;;;;;;;20.52;15.43;;;;;;;;;;4953129;29;20051;-70
2021/10/11 05:25:45;;;;;;;22.30;15.15;;;;;;;;;;4953297;29;20055;-70
2021/10/11 05:28:12;;;;;;;21.42;16.00;;;;;;;;;;4953292;29;20110;-68
2021/10/11 05:30:41;;;;;;;30.48;17.77;;;;;;;;;;4951258;29;20055;-71
2021/10/11 05:33:08;;;;;;;24.30;17.27;;;;;;;;;;4933881;29;20066;-71
2021/10/11 05:35:36;;;;;;;23.88;17.30;;;;;;;;;;4918450;29;20055;-71
2021/10/11 05:38:04;;;;;;;24.85;17.10;;;;;;;;;;4951164;29;20059;-70
2021/10/11 05:40:32;;;;;;;29.65;17.02;;;;;;;;;;4950977;29;20047;-71
2021/10/11 05:42:58;;;;;;;24.90;17.33;;;;;;;;;;4953181;28;20441;-71
2021/10/11 05:45:25;;;;;;;24.48;17.08;;;;;;;;;;4954423;29;20117;-70
2021/10/11 05:47:52;;;;;;;23.90;16.33;;;;;;;;;;4952779;29;20679;-71
2021/10/11 05:50:18;;;;;;;25.20;17.17;;;;;;;;;;4954400;29;20636;-71
2021/10/11 05:52:45;;;;;;;28.02;16.10;;;;;;;;;;4954216;29;20461;-71
2021/10/11 05:55:11;;;;;;;24.40;15.73;;;;;;;;;;4954579;29;20110;-71
2021/10/11 05:57:40;;;;;;;23.67;15.30;;;;;;;;;;4953426;29;20098;-70
2021/10/11 06:00:07;;;;;;;23.55;15.45;;;;;;;;;;4954137;29;20051;-70
2021/10/11 06:02:34;;;;;;;20.17;15.50;;;;;;;;;;4954387;29;20110;-70
2021/10/11 06:05:01;;;;;;;22.42;15.68;;;;;;;;;;4954532;29;20055;-69
2021/10/11 06:07:28;;;;;;;21.77;15.75;;;;;;;;;;4954137;28;20055;-69
2021/10/11 06:09:55;;;;;;;28.70;16.83;;;;;;;;;;4953695;29;20488;-70
2021/10/11 06:12:22;;;;;;;21.98;16.17;;;;;;;;;;4954186;29;20062;-70
2021/10/11 06:14:58;;;;;;;27.98;17.27;;;;;;;;;;4954362;29;20047;-70
2021/10/11 06:17:24;;;;;;;23.60;17.15;;;;;;;;;;4954168;29;20112;-70
2021/10/11 06:19:52;;;;;;;26.10;18.17;;;;;;;;;;4954142;29;20550;-70
2021/10/11 06:22:19;;;;;;;22.45;16.45;;;;;;;;;;4953661;29;20098;-71
2021/10/11 06:24:46;;;;;;;23.65;16.05;;;;;;;;;;4954905;29;20058;-72
2021/10/11 06:27:12;;;;;;;24.88;15.55;;;;;;;;;;4955893;29;20051;-71
2021/10/11 06:29:39;;;;;;;24.50;16.98;;;;;;;;;;4955735;29;20466;-71
2021/10/11 06:32:06;;;;;;;24.13;17.52;;;;;;;;;;4955724;29;20307;-72
2021/10/11 06:34:32;;;;;;;22.95;16.40;;;;;;;;;;4955792;29;20047;-70
2021/10/11 06:36:59;;;;;;;26.42;17.52;;;;;;;;;;4955607;29;20062;-70
2021/10/11 06:39:26;;;;;;;25.48;16.90;;;;;;;;;;4955840;29;20051;-69
2021/10/11 06:41:52;;;;;;;30.48;17.05;;;;;;;;;;4970063;28;20056;-70
2021/10/11 06:44:19;;;;;;;27.08;17.15;;;;;;;;;;4955624;29;20512;-70
2021/10/11 06:46:46;;;;;;;25.60;17.58;;;;;;;;;;4955380;29;20047;-70
2021/10/11 06:49:13;;;;;;;27.38;16.77;;;;;;;;;;4955602;29;20122;-70
2021/10/11 06:51:39;;;;;;;25.40;17.63;;;;;;;;;;4955003;29;20051;-70
2021/10/11 06:54:06;;;;;;;25.77;16.98;;;;;;;;;;4954844;28;20047;-70
2021/10/11 06:56:33;;;;;;;26.48;17.63;;;;;;;;;;4972769;28;20059;-70
2021/10/11 06:58:59;;;;;;;27.90;18.33;;;;;;;;;;4955753;29;20048;-70
2021/10/11 07:01:27;;;;;;;23.92;17.02;;;;;;;;;;4955235;29;20047;-70
2021/10/11 07:03:53;;;;;;;27.25;17.70;;;;;;;;;;4955441;29;20119;-71
2021/10/11 07:06:21;;;;;;;26.63;16.73;;;;;;;;;;4954826;29;20102;-70
2021/10/11 07:08:48;;;;;;;23.50;16.30;;;;;;;;;;4955214;29;20450;-70
2021/10/11 07:11:14;;;;;;;23.30;16.08;;;;;;;;;;4955274;29;20051;-70
2021/10/11 07:13:41;;;;;;;23.80;16.60;;;;;;;;;;4953680;29;20510;-70
2021/10/11 07:16:08;;;;;;;22.55;17.23;;;;;;;;;;4955257;29;20059;-70
2021/10/11 07:18:35;;;;;;;22.55;15.70;;;;;;;;;;4954922;29;20055;-70
2021/10/11 07:21:02;;;;;;;23.73;16.60;;;;;;;;;;4953824;29;20051;-71
2021/10/11 07:23:29;;;;;;;25.58;16.77;;;;;;;;;;4934355;29;20110;-70
2021/10/11 07:25:57;;;;;;;23.10;17.40;;;;;;;;;;4934888;29;20055;-70
2021/10/11 07:28:24;;;;;;;22.23;15.23;;;;;;;;;;4935626;29;20111;-70
2021/10/11 07:30:52;;;;;;;26.10;17.30;;;;;;;;;;4934805;29;20048;-70
2021/10/11 07:33:22;;;;;;;20.80;14.70;;;;;;;;;;4934450;29;20051;-70
2021/10/11 07:35:50;;;;;;;23.23;16.58;;;;;;;;;;4934904;29;20102;-70
2021/10/11 07:38:17;;;;;;;24.05;17.05;;;;;;;;;;4953510;29;20123;-71
2021/10/11 07:40:49;;;;;;;23.20;16.45;;;;;;;;;;4969151;28;20051;-70
2021/10/11 07:43:15;;;;;;;21.45;16.23;;;;;;;;;;4954265;29;20047;-70
2021/10/11 07:45:42;;;;;;;22.00;15.63;;;;;;;;;;4937598;29;20106;-70
2021/10/11 07:48:09;;;;;;;26.55;18.27;;;;;;;;;;4954274;29;20059;-70
2021/10/11 07:50:36;;;;;;;23.95;16.23;;;;;;;;;;4956298;28;20494;-70
2021/10/11 07:53:03;;;;;;;22.73;15.70;;;;;;;;;;4921670;29;20067;-70
2021/10/11 07:55:30;;;;;;;25.05;16.75;;;;;;;;;;4937204;29;20582;-70
2021/10/11 07:57:56;;;;;;;21.83;15.07;;;;;;;;;;4954397;29;20055;-70
2021/10/11 08:00:24;;;;;;;23.73;15.60;;;;;;;;;;4954282;29;20051;-70
2021/10/11 08:02:51;;;;;;;26.73;15.63;;;;;;;;;;4954099;29;20573;-70
2021/10/11 08:05:18;;;;;;;23.08;15.73;;;;;;;;;;4953960;28;20055;-70
2021/10/11 08:07:45;;;;;;;26.15;14.80;;;;;;;;;;4954694;29;20506;-69
2021/10/11 08:10:12;;;;;;;22.48;15.60;;;;;;;;;;4954086;29;20102;-69
2021/10/11 08:12:39;;;;;;;26.13;15.85;;;;;;;;;;4953902;29;20059;-69
2021/10/11 08:15:06;;;;;;;25.00;15.52;;;;;;;;;;4954160;29;20055;-69
2021/10/11 08:17:33;;;;;;;24.35;15.10;;;;;;;;;;4953802;29;20067;-69
2021/10/11 08:19:59;;;;;;;24.08;16.70;;;;;;;;;;4953832;29;20395;-69
2021/10/11 08:22:26;;;;;;;28.90;17.30;;;;;;;;;;4953950;29;20427;-70
2021/10/11 08:24:53;;;;;;;32.13;16.95;;;;;;;;;;4954134;29;20102;-70
2021/10/11 08:27:19;;;;;;;22.55;15.57;;;;;;;;;;4954094;29;20467;-69
2021/10/11 08:29:53;;;;;;;24.50;15.50;;;;;;;;;;4953764;29;20491;-70
2021/10/11 08:32:21;;;;;;;23.23;16.38;;;;;;;;;;4953511;29;20506;-69
2021/10/11 08:34:48;;;;;;;25.92;17.00;;;;;;;;;;4953846;29;20054;-70
2021/10/11 08:37:15;;;;;;;25.85;16.40;;;;;;;;;;4953775;29;20114;-69
2021/10/11 08:39:42;;;;;;;19.85;15.10;;;;;;;;;;4953778;29;20109;-69
2021/10/11 08:42:13;;;;;;;21.10;14.75;;;;;;;;;;4953540;29;20117;-69
2021/10/11 08:44:40;;;;;;;18.40;14.48;;;;;;;;;;4953686;29;20470;-70
2021/10/11 08:47:10;;;;;;;21.70;14.63;;;;;;;;;;4953488;29;20079;-69
2021/10/11 08:49:47;;;;;;;19.50;13.88;;;;;;;;;;4953516;29;20047;-70
2021/10/11 08:52:15;;;;;;;21.52;13.80;;;;;;;;;;4953552;29;20055;-70
2021/10/11 08:54:41;;;;;;;19.65;14.63;;;;;;;;;;4954877;29;20570;-70
2021/10/11 08:57:22;;;;;;;21.35;14.32;;;;;;;;;;4955000;29;20229;-70
2021/10/11 08:59:50;;;;;;;21.92;13.10;;;;;;;;;;4954896;29;20047;-70
2021/10/11 09:02:20;;;;;;;20.02;13.07;;;;;;;;;;4954533;29;20462;-70
2021/10/11 09:04:55;;;;;;;18.00;12.98;;;;;;;;;;4954823;29;20102;-69
2021/10/11 09:07:24;;;;;;;20.75;12.98;;;;;;;;;;4968122;28;20055;-69
2021/10/11 09:09:51;;;;;;;20.75;13.32;;;;;;;;;;4953422;29;20047;-69
2021/10/11 09:12:21;;;;;;;19.45;13.10;;;;;;;;;;4953266;29;20118;-69
2021/10/11 09:15:03;;;;;;;17.48;12.50;;;;;;;;;;4953455;29;20110;-69
2021/10/11 09:17:34;;;;;;;20.00;13.02;;;;;;;;;;4955050;28;20055;-69
2021/10/11 09:20:14;;;;;;;19.00;13.88;;;;;;;;;;4957246;29;20090;-69
2021/10/11 09:22:44;;;;;;;17.75;13.15;;;;;;;;;;4939845;29;20062;-69
2021/10/11 09:25:11;;;;;;;17.40;12.68;;;;;;;;;;4957356;29;20465;-69
2021/10/11 09:27:52;;;;;;;18.88;13.10;;;;;;;;;;4958176;29;20475;-69
2021/10/11 09:30:24;;;;;;;20.48;13.10;;;;;;;;;;4957092;29;20094;-70
2021/10/11 09:32:51;;;;;;;18.98;12.20;;;;;;;;;;4956687;29;20051;-69
2021/10/11 09:35:19;;;;;;;16.55;12.25;;;;;;;;;;4958443;29;20054;-71
2021/10/11 09:37:52;;;;;;;20.50;13.43;;;;;;;;;;4962007;29;20063;-72
2021/10/11 09:40:20;;;;;;;16.63;12.70;;;;;;;;;;4962657;29;20051;-69
2021/10/11 09:42:47;;;;;;;19.52;13.65;;;;;;;;;;4971082;28;20522;-70
2021/10/11 09:45:14;;;;;;;17.02;12.20;;;;;;;;;;4958543;29;20055;-70
2021/10/11 09:47:46;;;;;;;20.52;12.88;;;;;;;;;;4939515;29;20102;-70
2021/10/11 09:50:14;;;;;;;21.13;12.77;;;;;;;;;;4956834;29;20466;-69
2021/10/11 09:52:41;;;;;;;18.23;12.45;;;;;;;;;;4956454;29;20055;-69
2021/10/11 09:55:09;;;;;;;17.33;12.20;;;;;;;;;;4956900;29;20051;-70
2021/10/11 09:57:36;;;;;;;20.30;13.55;;;;;;;;;;4956515;29;20051;-69
2021/10/11 10:00:07;;;;;;;19.35;13.25;;;;;;;;;;4956735;29;20055;-69
2021/10/11 10:02:39;;;;;;;21.02;13.38;;;;;;;;;;4956545;29;20055;-69
2021/10/11 10:05:21;;;;;;;18.95;13.45;;;;;;;;;;4939980;29;20086;-69
2021/10/11 10:07:50;;;;;;;21.33;12.55;;;;;;;;;;4924218;29;20051;-70
2021/10/11 10:10:19;;;;;;;18.13;13.52;;;;;;;;;;4939227;29;20102;-70
2021/10/11 10:12:47;;;;;;;24.30;12.40;;;;;;;;;;4956038;29;20515;-69
2021/10/11 10:15:27;;;;;;;19.52;13.05;;;;;;;;;;4955676;29;20058;-69
2021/10/11 10:18:15;;;;;;;18.08;13.48;;;;;;;;;;4956000;29;20051;-69
2021/10/11 10:20:57;;;;;;;17.67;12.90;;;;;;;;;;4955975;29;20051;-69
2021/10/11 10:23:28;;;;;;;20.13;13.25;;;;;;;;;;4956016;29;20062;-69
2021/10/11 10:25:56;;;;;;;18.33;12.27;;;;;;;;;;4956163;29;20503;-69
2021/10/11 10:28:24;;;;;;;17.50;12.77;;;;;;;;;;4955855;28;20470;-69
2021/10/11 10:31:01;;;;;;;19.58;12.00;;;;;;;;;;4955665;29;20467;-69
2021/10/11 10:33:33;;;;;;;18.80;13.10;;;;;;;;;;4955756;29;20079;-70
2021/10/11 10:36:01;;;;;;;20.38;14.07;;;;;;;;;;4955688;29;20051;-69
2021/10/11 10:38:28;;;;;;;19.42;13.00;;;;;;;;;;4956022;29;20106;-69
2021/10/11 10:40:55;;;;;;;18.90;13.13;;;;;;;;;;4970603;28;20047;-69
2021/10/11 10:43:21;;;;;;;21.45;13.32;;;;;;;;;;4955393;29;20051;-69
2021/10/11 10:45:48;;;;;;;20.52;13.50;;;;;;;;;;4955652;29;20491;-69
2021/10/11 10:48:25;;;;;;;17.85;13.80;;;;;;;;;;4955810;29;20062;-69
2021/10/11 10:50:58;;;;;;;23.02;14.75;;;;;;;;;;4955303;29;20106;-69
2021/10/11 10:53:28;;;;;;;22.83;14.07;;;;;;;;;;4955351;29;20091;-70
2021/10/11 10:55:55;;;;;;;20.95;14.00;;;;;;;;;;4955387;29;20498;-69
2021/10/11 10:58:23;;;;;;;23.98;14.25;;;;;;;;;;4955358;29;20200;-69
2021/10/11 11:00:49;;;;;;;23.77;15.48;;;;;;;;;;4955332;29;20106;-69
2021/10/11 11:03:19;;;;;;;21.52;13.98;;;;;;;;;;4955225;29;20134;-69
2021/10/11 11:05:48;;;;;;;21.92;14.38;;;;;;;;;;4955302;29;20079;-69
2021/10/11 11:08:34;;;;;;;20.98;13.55;;;;;;;;;;4955426;29;20087;-69
2021/10/11 11:11:03;;;;;;;19.50;13.25;;;;;;;;;;4955229;29;20443;-69
2021/10/11 11:13:29;;;;;;;18.73;13.90;;;;;;;;;;4954980;29;20427;-70
2021/10/11 11:15:56;;;;;;;19.75;13.23;;;;;;;;;;4955326;29;20466;-69
2021/10/11 11:18:24;;;;;;;17.52;13.27;;;;;;;;;;4955020;29;20134;-69
2021/10/11 11:20:53;;;;;;;21.75;14.40;;;;;;;;;;4955151;29;20106;-69
2021/10/11 11:23:25;;;;;;;19.05;13.93;;;;;;;;;;4954622;29;20055;-69
2021/10/11 11:25:54;;;;;;;19.98;13.05;;;;;;;;;;4954867;29;20114;-69
2021/10/11 11:28:23;;;;;;;24.27;13.63;;;;;;;;;;4954933;29;20055;-69
2021/10/11 11:30:51;;;;;;;23.02;14.05;;;;;;;;;;4954901;29;20047;-70
2021/10/11 11:33:27;;;;;;;21.20;13.18;;;;;;;;;;4954753;29;20474;-69
2021/10/11 11:35:55;;;;;;;20.55;13.65;;;;;;;;;;4939320;29;20108;-69
2021/10/11 11:38:23;;;;;;;20.23;13.75;;;;;;;;;;4954332;29;20506;-69
2021/10/11 11:40:51;;;;;;;19.77;13.27;;;;;;;;;;4954075;28;20048;-69
2021/10/11 11:43:18;;;;;;;20.20;12.70;;;;;;;;;;4954388;29;20399;-69
2021/10/11 11:45:48;;;;;;;15.90;12.73;;;;;;;;;;4954521;29;20586;-69
2021/10/11 11:48:17;;;;;;;20.73;13.48;;;;;;;;;;4954461;29;20133;-69
2021/10/11 11:50:45;;;;;;;20.90;13.40;;;;;;;;;;4954478;29;20403;-69
2021/10/11 11:53:15;;;;;;;19.00;13.40;;;;;;;;;;4954401;29;20059;-69
2021/10/11 11:55:46;;;;;;;17.40;12.05;;;;;;;;;;4957747;29;20109;-70
2021/10/11 11:58:15;;;;;;;17.98;12.65;;;;;;;;;;4954685;29;20502;-69
2021/10/11 12:00:43;;;;;;;20.30;13.90;;;;;;;;;;4954707;29;20055;-70
2021/10/11 12:03:10;;;;;;;16.70;11.45;;;;;;;;;;4937219;29;20122;-70
2021/10/11 12:05:39;;;;;;;19.88;12.98;;;;;;;;;;4954246;29;20059;-71
2021/10/11 12:08:07;;;;;;;18.75;12.23;;;;;;;;;;4952942;28;20494;-70
2021/10/11 12:10:34;;;;;;;18.13;11.52;;;;;;;;;;4952911;29;20067;-70
2021/10/11 12:13:03;;;;;;;16.40;11.85;;;;;;;;;;4953901;29;20051;-71
2021/10/11 12:15:31;;;;;;;15.05;11.77;;;;;;;;;;4954026;29;20066;-71
2021/10/11 12:18:09;;;;;;;16.13;11.80;;;;;;;;;;4953910;29;20558;-71
2021/10/11 12:20:47;;;;;;;17.95;11.35;;;;;;;;;;4953960;29;20047;-72
2021/10/11 12:23:15;;;;;;;15.85;11.23;;;;;;;;;;4953788;29;20515;-71
2021/10/11 12:25:42;;;;;;;16.15;10.82;;;;;;;;;;4953842;29;20050;-71
2021/10/11 12:28:17;;;;;;;13.10;9.27;;;;;;;;;;4953941;29;20102;-71
2021/10/11 12:30:47;;;;;;;13.95;9.43;;;;;;;;;;4953755;29;20047;-71
2021/10/11 12:33:16;;;;;;;15.55;11.15;;;;;;;;;;4934440;29;20056;-71
2021/10/11 12:35:46;;;;;;;13.57;9.90;;;;;;;;;;4934686;29;20475;-71
2021/10/11 12:38:15;;;;;;;16.20;11.02;;;;;;;;;;4918209;29;20052;-71
2021/10/11 12:40:43;;;;;;;17.38;11.65;;;;;;;;;;4934486;29;20052;-71
2021/10/11 12:43:20;;;;;;;16.25;11.32;;;;;;;;;;4934593;29;20439;-71
2021/10/11 12:46:01;;;;;;;16.48;11.30;;;;;;;;;;4946990;29;20459;-71
2021/10/11 12:48:27;;;;;;;17.73;13.05;;;;;;;;;;4950840;29;20055;-71
2021/10/11 12:50:54;;;;;;;17.67;12.82;;;;;;;;;;4953311;28;20098;-71
2021/10/11 12:53:31;;;;;;;17.35;11.57;;;;;;;;;;4953047;29;20054;-71
2021/10/11 12:56:01;;;;;;;15.43;10.90;;;;;;;;;;4953708;29;20114;-71
2021/10/11 12:58:28;;;;;;;16.67;11.98;;;;;;;;;;4953534;29;20054;-71
2021/10/11 13:00:55;;;;;;;20.05;12.63;;;;;;;;;;4953575;29;20073;-71
2021/10/11 13:03:22;;;;;;;18.77;12.30;;;;;;;;;;4953341;29;20137;-71
2021/10/11 13:05:50;;;;;;;14.10;11.27;;;;;;;;;;4953325;29;20097;-71
2021/10/11 13:08:17;;;;;;;19.58;12.88;;;;;;;;;;4953289;28;20470;-70
2021/10/11 13:10:45;;;;;;;16.35;12.80;;;;;;;;;;4953321;29;20090;-71
2021/10/11 13:13:12;;;;;;;13.98;10.55;;;;;;;;;;4953172;29;20055;-71
2021/10/11 13:15:39;;;;;;;16.15;11.45;;;;;;;;;;4953206;29;20063;-70
2021/10/11 13:18:07;;;;;;;22.73;11.82;;;;;;;;;;4953386;29;20051;-71
2021/10/11 13:20:35;;;;;;;15.57;10.95;;;;;;;;;;4953300;29;20134;-70
2021/10/11 13:23:01;;;;;;;21.27;11.68;;;;;;;;;;4953138;29;20057;-71
2021/10/11 13:25:28;;;;;;;16.27;11.63;;;;;;;;;;4953125;29;20557;-71
2021/10/11 13:27:55;;;;;;;14.52;11.40;;;;;;;;;;4953376;29;20063;-71
2021/10/11 14:27:48;;;;;;;31.85;20.92;;;;;;;;;;4936029;29;20055;-66
2021/10/11 14:30:24;;;;;;;39.17;22.75;;;;;;;;;;4936966;29;20589;-66
2021/10/11 14:33:05;;;;;;;35.95;24.23;;;;;;;;;;4936952;29;20102;-66
2021/10/11 16:01:12;;;;;;;51.60;32.58;;;;;;;;;;4935510;29;20138;-68
2021/10/11 16:06:06;;;;;;;53.50;31.92;;;;;;;;;;4918376;29;20149;-67
2021/10/11 16:08:33;;;;;;;50.60;31.30;;;;;;;;;;4917840;29;20434;-67
2021/10/11 16:11:00;;;;;;;50.85;33.15;;;;;;;;;;4918079;29;20419;-68
2021/10/11 16:13:27;;;;;;;49.13;31.48;;;;;;;;;;4918038;29;20511;-67
2021/10/11 16:15:54;;;;;;;51.50;31.70;;;;;;;;;;4902562;29;20055;-67
2021/10/11 16:18:30;;;;;;;51.70;31.90;;;;;;;;;;4919349;29;20147;-69
2021/10/11 16:21:01;;;;;;;50.38;31.60;;;;;;;;;;4902491;29;20056;-68
2021/10/11 16:23:28;;;;;;;57.92;34.00;;;;;;;;;;4902066;29;20459;-68
2021/10/11 16:25:55;;;;;;;56.25;34.85;;;;;;;;;;4934802;29;20482;-67
2021/10/11 16:28:22;;;;;;;59.22;34.63;;;;;;;;;;4902225;29;20059;-67
2021/10/11 16:30:49;;;;;;;60.53;32.25;;;;;;;;;;4917002;29;20083;-68
2021/10/11 16:33:16;;;;;;;57.42;34.72;;;;;;;;;;4933986;29;20048;-69
2021/10/11 16:35:44;;;;;;;53.45;34.38;;;;;;;;;;4934662;29;20052;-66
2021/10/11 16:38:11;;;;;;;57.85;35.83;;;;;;;;;;4934665;29;20087;-69
2021/10/11 16:40:38;;;;;;;56.65;34.45;;;;;;;;;;4901489;29;20051;-68
2021/10/11 16:43:05;;;;;;;57.20;33.65;;;;;;;;;;4930790;29;20047;-69
2021/10/11 16:45:32;;;;;;;59.47;35.42;;;;;;;;;;4901829;29;20048;-70